sensor_id;sensor_type;location;lat;lon;timestamp;temperature;humidity
70695;DHT22;58269;52.246;21.104;2022-11-21T00:00:19;4.32;52.72
70695;DHT22;58269;52.246;21.104;2022-11-21T00:02:23;4.32;52.81
70695;DHT22;58269;52.246;21.104;2022-11-21T00:04:24;4.36;52.75
70695;DHT22;58269;52.246;21.104;2022-11-21T00:06:27;4.40;53.05
70695;DHT22;58269;52.246;21.104;2022-11-21T00:08:28;4.46;52.71
70695;DHT22;58269;52.246;21.104;2022-11-21T00:10:30;4.42;52.70
70695;DHT22;58269;52.246;21.104;2022-11-21T00:12:31;4.39;52.57
70695;DHT22;58269;52.246;21.104;2022-11-21T00:14:33;4.42;52.54
70695;DHT22;58269;52.246;21.104;2022-11-21T00:16:34;4.42;52.56
70695;DHT22;58269;52.246;21.104;2022-11-21T00:18:35;4.36;52.51
70695;DHT22;58269;52.246;21.104;2022-11-21T00:20:36;4.33;52.57
70695;DHT22;58269;52.246;21.104;2022-11-21T00:22:38;4.35;52.61
70695;DHT22;58269;52.246;21.104;2022-11-21T00:24:39;4.32;52.66
70695;DHT22;58269;52.246;21.104;2022-11-21T00:26:40;4.35;52.72
70695;DHT22;58269;52.246;21.104;2022-11-21T00:28:41;4.28;52.88
70695;DHT22;58269;52.246;21.104;2022-11-21T00:30:42;4.30;52.73
70695;DHT22;58269;52.246;21.104;2022-11-21T00:32:43;4.32;52.75
70695;DHT22;58269;52.246;21.104;2022-11-21T00:34:44;4.32;52.91
70695;DHT22;58269;52.246;21.104;2022-11-21T00:36:45;4.35;52.84
70695;DHT22;58269;52.246;21.104;2022-11-21T00:38:46;4.42;53.07
70695;DHT22;58269;52.246;21.104;2022-11-21T00:40:47;4.86;55.54
70695;DHT22;58269;52.246;21.104;2022-11-21T00:42:49;5.43;56.21
70695;DHT22;58269;52.246;21.104;2022-11-21T00:44:50;5.04;51.23
70695;DHT22;58269;52.246;21.104;2022-11-21T00:46:51;5.10;53.18
70695;DHT22;58269;52.246;21.104;2022-11-21T00:48:52;5.41;52.96
70695;DHT22;58269;52.246;21.104;2022-11-21T00:50:53;5.00;51.45
70695;DHT22;58269;52.246;21.104;2022-11-21T00:52:55;5.42;55.45
70695;DHT22;58269;52.246;21.104;2022-11-21T00:54:57;5.14;49.76
70695;DHT22;58269;52.246;21.104;2022-11-21T00:56:58;5.10;53.65
70695;DHT22;58269;52.246;21.104;2022-11-21T00:58:59;5.41;52.62
70695;DHT22;58269;52.246;21.104;2022-11-21T01:01:03;4.97;50.74
70695;DHT22;58269;52.246;21.104;2022-11-21T01:03:04;5.31;54.46
70695;DHT22;58269;52.246;21.104;2022-11-21T01:05:06;5.24;50.48
70695;DHT22;58269;52.246;21.104;2022-11-21T01:07:07;5.04;52.43
70695;DHT22;58269;52.246;21.104;2022-11-21T01:09:08;5.41;53.02
70695;DHT22;58269;52.246;21.104;2022-11-21T01:11:13;5.05;49.44
70695;DHT22;58269;52.246;21.104;2022-11-21T01:13:14;5.19;52.77
70695;DHT22;58269;52.246;21.104;2022-11-21T01:15:16;5.31;50.38
70695;DHT22;58269;52.246;21.104;2022-11-21T01:17:17;4.98;50.97
70695;DHT22;58269;52.246;21.104;2022-11-21T01:19:18;5.38;53.16
70695;DHT22;58269;52.246;21.104;2022-11-21T01:21:21;5.14;48.84
70695;DHT22;58269;52.246;21.104;2022-11-21T01:23:23;5.11;52.65
70695;DHT22;58269;52.246;21.104;2022-11-21T01:25:24;5.41;51.85
70695;DHT22;58269;52.246;21.104;2022-11-21T01:27:27;4.97;50.02
70695;DHT22;58269;52.246;21.104;2022-11-21T01:29:28;5.25;53.30
70695;DHT22;58269;52.246;21.104;2022-11-21T01:31:29;5.31;50.41
70695;DHT22;58269;52.246;21.104;2022-11-21T01:33:30;5.01;51.42
70695;DHT22;58269;52.246;21.104;2022-11-21T01:35:31;5.41;53.16
70695;DHT22;58269;52.246;21.104;2022-11-21T01:37:32;5.04;49.52
70695;DHT22;58269;52.246;21.104;2022-11-21T01:39:34;5.15;52.85
70695;DHT22;58269;52.246;21.104;2022-11-21T01:41:41;5.34;51.36
70695;DHT22;58269;52.246;21.104;2022-11-21T01:43:42;4.96;51.02
70695;DHT22;58269;52.246;21.104;2022-11-21T01:47:57;5.05;49.68
70695;DHT22;58269;52.246;21.104;2022-11-21T01:49:58;5.05;52.48
70695;DHT22;58269;52.246;21.104;2022-11-21T01:52:24;5.41;52.06
70695;DHT22;58269;52.246;21.104;2022-11-21T01:54:41;4.90;50.77
70695;DHT22;58269;52.246;21.104;2022-11-21T01:58:47;5.25;49.77
70695;DHT22;58269;52.246;21.104;2022-11-21T02:00:50;4.97;51.14
70695;DHT22;58269;52.246;21.104;2022-11-21T02:02:56;5.28;52.05
70695;DHT22;58269;52.246;21.104;2022-11-21T02:04:59;5.11;49.53
70695;DHT22;58269;52.246;21.104;2022-11-21T02:07:02;5.18;51.89
70695;DHT22;58269;52.246;21.104;2022-11-21T02:09:04;5.29;50.25
70695;DHT22;58269;52.246;21.104;2022-11-21T02:11:09;4.93;50.49
70695;DHT22;58269;52.246;21.104;2022-11-21T02:13:10;5.32;52.73
70695;DHT22;58269;52.246;21.104;2022-11-21T02:15:11;5.18;49.18
70695;DHT22;58269;52.246;21.104;2022-11-21T02:17:12;5.05;51.26
70695;DHT22;58269;52.246;21.104;2022-11-21T02:19:21;5.50;51.64
70695;DHT22;58269;52.246;21.104;2022-11-21T02:21:37;4.98;48.80
70695;DHT22;58269;52.246;21.104;2022-11-21T02:23:55;5.18;51.83
70695;DHT22;58269;52.246;21.104;2022-11-21T02:25:55;5.24;49.39
70695;DHT22;58269;52.246;21.104;2022-11-21T02:28:02;4.98;50.54
70695;DHT22;58269;52.246;21.104;2022-11-21T02:30:05;5.38;50.79
70695;DHT22;58269;52.246;21.104;2022-11-21T02:32:07;5.05;48.91
70695;DHT22;58269;52.246;21.104;2022-11-21T02:34:08;5.07;50.82
70695;DHT22;58269;52.246;21.104;2022-11-21T02:38:37;4.96;49.40
70695;DHT22;58269;52.246;21.104;2022-11-21T02:40:40;5.22;52.24
70695;DHT22;58269;52.246;21.104;2022-11-21T02:43:01;5.22;49.64
70695;DHT22;58269;52.246;21.104;2022-11-21T02:45:25;5.01;50.91
70695;DHT22;58269;52.246;21.104;2022-11-21T02:47:27;5.36;50.44
70695;DHT22;58269;52.246;21.104;2022-11-21T02:49:52;4.98;48.71
70695;DHT22;58269;52.246;21.104;2022-11-21T02:51:49;5.10;50.73
70695;DHT22;58269;52.246;21.104;2022-11-21T02:53:50;5.35;50.15
70695;DHT22;58269;52.246;21.104;2022-11-21T02:55:51;4.93;50.09
70695;DHT22;58269;52.246;21.104;2022-11-21T02:57:52;5.04;51.07
70695;DHT22;58269;52.246;21.104;2022-11-21T02:59:54;5.31;50.68
70695;DHT22;58269;52.246;21.104;2022-11-21T03:01:55;5.00;49.73
70695;DHT22;58269;52.246;21.104;2022-11-21T03:03:58;5.10;50.68
70695;DHT22;58269;52.246;21.104;2022-11-21T03:05:59;5.34;50.05
70695;DHT22;58269;52.246;21.104;2022-11-21T03:08:00;4.94;49.77
70695;DHT22;58269;52.246;21.104;2022-11-21T03:10:01;5.07;50.81
70695;DHT22;58269;52.246;21.104;2022-11-21T03:12:06;5.32;50.03
70695;DHT22;58269;52.246;21.104;2022-11-21T03:14:07;4.94;49.79
70695;DHT22;58269;52.246;21.104;2022-11-21T03:16:09;5.05;50.58
70695;DHT22;58269;52.246;21.104;2022-11-21T03:18:10;5.25;50.45
70695;DHT22;58269;52.246;21.104;2022-11-21T03:20:11;5.08;49.28
70695;DHT22;58269;52.246;21.104;2022-11-21T03:22:13;5.03;50.34
70695;DHT22;58269;52.246;21.104;2022-11-21T03:24:14;5.07;49.98
70695;DHT22;58269;52.246;21.104;2022-11-21T03:26:15;4.94;49.70
70695;DHT22;58269;52.246;21.104;2022-11-21T03:28:16;4.87;50.01
70695;DHT22;58269;52.246;21.104;2022-11-21T03:30:19;4.80;49.92
70695;DHT22;58269;52.246;21.104;2022-11-21T03:32:20;4.70;50.17
70695;DHT22;58269;52.246;21.104;2022-11-21T03:34:21;4.64;49.97
70695;DHT22;58269;52.246;21.104;2022-11-21T03:36:22;4.59;50.43
70695;DHT22;58269;52.246;21.104;2022-11-21T03:38:23;4.52;50.74
70695;DHT22;58269;52.246;21.104;2022-11-21T03:40:24;4.46;50.87
70695;DHT22;58269;52.246;21.104;2022-11-21T03:42:26;4.40;51.01
70695;DHT22;58269;52.246;21.104;2022-11-21T03:44:28;4.39;51.28
70695;DHT22;58269;52.246;21.104;2022-11-21T03:46:30;4.39;51.33
70695;DHT22;58269;52.246;21.104;2022-11-21T03:48:32;4.43;51.29
70695;DHT22;58269;52.246;21.104;2022-11-21T03:50:33;4.45;51.27
70695;DHT22;58269;52.246;21.104;2022-11-21T03:52:34;4.46;51.17
70695;DHT22;58269;52.246;21.104;2022-11-21T03:54:34;4.46;51.04
70695;DHT22;58269;52.246;21.104;2022-11-21T03:56:36;4.45;51.29
70695;DHT22;58269;52.246;21.104;2022-11-21T03:58:40;4.45;51.33
70695;DHT22;58269;52.246;21.104;2022-11-21T04:00:41;4.46;51.31
70695;DHT22;58269;52.246;21.104;2022-11-21T04:02:42;4.48;51.20
70695;DHT22;58269;52.246;21.104;2022-11-21T04:04:43;4.46;51.27
70695;DHT22;58269;52.246;21.104;2022-11-21T04:06:44;4.43;51.28
70695;DHT22;58269;52.246;21.104;2022-11-21T04:08:45;4.43;51.29
70695;DHT22;58269;52.246;21.104;2022-11-21T04:10:47;4.43;51.29
70695;DHT22;58269;52.246;21.104;2022-11-21T04:12:48;4.45;51.14
70695;DHT22;58269;52.246;21.104;2022-11-21T04:14:49;4.40;50.98
70695;DHT22;58269;52.246;21.104;2022-11-21T04:16:50;4.36;50.88
70695;DHT22;58269;52.246;21.104;2022-11-21T04:18:51;4.30;50.91
70695;DHT22;58269;52.246;21.104;2022-11-21T04:21:00;4.25;51.09
70695;DHT22;58269;52.246;21.104;2022-11-21T04:23:01;4.26;51.08
70695;DHT22;58269;52.246;21.104;2022-11-21T04:25:03;4.29;51.15
70695;DHT22;58269;52.246;21.104;2022-11-21T04:27:04;4.35;51.18
70695;DHT22;58269;52.246;21.104;2022-11-21T04:29:05;4.35;50.99
70695;DHT22;58269;52.246;21.104;2022-11-21T04:31:07;4.33;50.88
70695;DHT22;58269;52.246;21.104;2022-11-21T04:33:09;4.23;50.93
70695;DHT22;58269;52.246;21.104;2022-11-21T04:35:12;4.43;50.99
70695;DHT22;58269;52.246;21.104;2022-11-21T04:37:13;4.36;50.62
70695;DHT22;58269;52.246;21.104;2022-11-21T04:39:14;4.26;50.53
70695;DHT22;58269;52.246;21.104;2022-11-21T04:41:15;4.22;50.56
70695;DHT22;58269;52.246;21.104;2022-11-21T04:43:18;4.15;50.55
70695;DHT22;58269;52.246;21.104;2022-11-21T04:45:19;4.06;50.67
70695;DHT22;58269;52.246;21.104;2022-11-21T04:47:20;4.02;50.92
70695;DHT22;58269;52.246;21.104;2022-11-21T04:49:21;3.98;51.03
70695;DHT22;58269;52.246;21.104;2022-11-21T04:51:22;3.94;51.18
70695;DHT22;58269;52.246;21.104;2022-11-21T04:53:23;3.90;51.14
70695;DHT22;58269;52.246;21.104;2022-11-21T04:55:26;3.84;51.32
70695;DHT22;58269;52.246;21.104;2022-11-21T04:57:29;3.85;51.53
70695;DHT22;58269;52.246;21.104;2022-11-21T04:59:30;3.85;51.51
70695;DHT22;58269;52.246;21.104;2022-11-21T05:01:31;3.88;51.65
70695;DHT22;58269;52.246;21.104;2022-11-21T05:03:32;3.91;51.60
70695;DHT22;58269;52.246;21.104;2022-11-21T05:05:33;3.90;51.47
70695;DHT22;58269;52.246;21.104;2022-11-21T05:07:35;3.88;51.43
70695;DHT22;58269;52.246;21.104;2022-11-21T05:09:36;3.87;51.31
70695;DHT22;58269;52.246;21.104;2022-11-21T05:11:37;3.82;51.39
70695;DHT22;58269;52.246;21.104;2022-11-21T05:13:56;3.81;51.50
70695;DHT22;58269;52.246;21.104;2022-11-21T05:15:57;3.78;51.49
70695;DHT22;58269;52.246;21.104;2022-11-21T05:17:58;3.77;51.82
70695;DHT22;58269;52.246;21.104;2022-11-21T05:20:00;3.74;51.58
70695;DHT22;58269;52.246;21.104;2022-11-21T05:22:01;3.73;51.68
70695;DHT22;58269;52.246;21.104;2022-11-21T05:24:02;3.70;51.87
70695;DHT22;58269;52.246;21.104;2022-11-21T05:26:03;3.70;51.71
70695;DHT22;58269;52.246;21.104;2022-11-21T05:28:04;3.69;51.90
70695;DHT22;58269;52.246;21.104;2022-11-21T05:30:06;3.70;51.95
70695;DHT22;58269;52.246;21.104;2022-11-21T05:32:07;3.71;51.87
70695;DHT22;58269;52.246;21.104;2022-11-21T05:34:08;3.71;52.07
70695;DHT22;58269;52.246;21.104;2022-11-21T05:36:09;3.73;51.81
70695;DHT22;58269;52.246;21.104;2022-11-21T05:38:10;3.75;51.78
70695;DHT22;58269;52.246;21.104;2022-11-21T05:40:12;3.74;51.80
70695;DHT22;58269;52.246;21.104;2022-11-21T05:42:13;3.69;52.04
70695;DHT22;58269;52.246;21.104;2022-11-21T05:44:14;3.66;52.17
70695;DHT22;58269;52.246;21.104;2022-11-21T05:46:19;3.66;51.91
70695;DHT22;58269;52.246;21.104;2022-11-21T05:48:19;3.59;52.22
70695;DHT22;58269;52.246;21.104;2022-11-21T05:50:20;3.54;52.04
70695;DHT22;58269;52.246;21.104;2022-11-21T05:52:21;3.50;52.06
70695;DHT22;58269;52.246;21.104;2022-11-21T05:54:22;3.49;52.04
70695;DHT22;58269;52.246;21.104;2022-11-21T05:56:23;3.49;52.18
70695;DHT22;58269;52.246;21.104;2022-11-21T05:58:24;3.50;52.17
70695;DHT22;58269;52.246;21.104;2022-11-21T06:00:26;3.47;52.16
70695;DHT22;58269;52.246;21.104;2022-11-21T06:02:27;3.49;52.16
70695;DHT22;58269;52.246;21.104;2022-11-21T06:04:47;3.40;52.26
70695;DHT22;58269;52.246;21.104;2022-11-21T06:06:48;3.45;52.23
70695;DHT22;58269;52.246;21.104;2022-11-21T06:08:49;3.43;52.26
70695;DHT22;58269;52.246;21.104;2022-11-21T06:10:50;3.47;52.30
70695;DHT22;58269;52.246;21.104;2022-11-21T06:12:51;3.53;52.32
70695;DHT22;58269;52.246;21.104;2022-11-21T06:14:53;3.53;52.38
70695;DHT22;58269;52.246;21.104;2022-11-21T06:16:54;3.63;52.45
70695;DHT22;58269;52.246;21.104;2022-11-21T06:18:55;3.61;52.13
70695;DHT22;58269;52.246;21.104;2022-11-21T06:21:05;3.63;52.27
70695;DHT22;58269;52.246;21.104;2022-11-21T06:23:07;3.67;52.30
70695;DHT22;58269;52.246;21.104;2022-11-21T06:25:08;3.73;52.39
70695;DHT22;58269;52.246;21.104;2022-11-21T06:27:09;3.77;52.42
70695;DHT22;58269;52.246;21.104;2022-11-21T06:29:10;3.78;52.23
70695;DHT22;58269;52.246;21.104;2022-11-21T06:31:17;3.81;52.22
70695;DHT22;58269;52.246;21.104;2022-11-21T06:33:19;3.90;52.44
70695;DHT22;58269;52.246;21.104;2022-11-21T06:35:20;3.95;52.17
70695;DHT22;58269;52.246;21.104;2022-11-21T06:37:21;3.97;52.21
70695;DHT22;58269;52.246;21.104;2022-11-21T06:39:21;4.00;52.38
70695;DHT22;58269;52.246;21.104;2022-11-21T06:41:24;4.02;52.31
70695;DHT22;58269;52.246;21.104;2022-11-21T06:43:26;4.08;52.23
70695;DHT22;58269;52.246;21.104;2022-11-21T06:45:27;4.08;52.17
70695;DHT22;58269;52.246;21.104;2022-11-21T06:47:28;4.06;51.35
70695;DHT22;58269;52.246;21.104;2022-11-21T06:49:29;4.08;51.63
70695;DHT22;58269;52.246;21.104;2022-11-21T06:51:30;4.04;50.99
70695;DHT22;58269;52.246;21.104;2022-11-21T06:53:31;4.09;51.60
70695;DHT22;58269;52.246;21.104;2022-11-21T06:55:33;4.06;51.24
70695;DHT22;58269;52.246;21.104;2022-11-21T06:57:34;4.09;51.40
70695;DHT22;58269;52.246;21.104;2022-11-21T06:59:35;4.12;51.51
70695;DHT22;58269;52.246;21.104;2022-11-21T07:01:36;4.11;51.36
70695;DHT22;58269;52.246;21.104;2022-11-21T07:03:37;4.12;51.38
70695;DHT22;58269;52.246;21.104;2022-11-21T07:05:38;4.11;51.15
70695;DHT22;58269;52.246;21.104;2022-11-21T07:07:39;4.11;51.26
70695;DHT22;58269;52.246;21.104;2022-11-21T07:09:40;4.11;51.17
70695;DHT22;58269;52.246;21.104;2022-11-21T07:11:43;4.08;51.14
70695;DHT22;58269;52.246;21.104;2022-11-21T07:13:44;4.08;51.36
70695;DHT22;58269;52.246;21.104;2022-11-21T07:15:45;4.14;51.51
70695;DHT22;58269;52.246;21.104;2022-11-21T07:17:47;4.16;51.65
70695;DHT22;58269;52.246;21.104;2022-11-21T07:19:48;4.19;51.49
70695;DHT22;58269;52.246;21.104;2022-11-21T07:21:49;4.23;51.14
70695;DHT22;58269;52.246;21.104;2022-11-21T07:23:50;4.28;51.29
70695;DHT22;58269;52.246;21.104;2022-11-21T07:25:51;4.30;51.11
70695;DHT22;58269;52.246;21.104;2022-11-21T07:27:52;4.40;51.33
70695;DHT22;58269;52.246;21.104;2022-11-21T07:29:53;4.43;51.28
70695;DHT22;58269;52.246;21.104;2022-11-21T07:31:56;4.46;51.35
70695;DHT22;58269;52.246;21.104;2022-11-21T07:34:00;4.48;51.27
70695;DHT22;58269;52.246;21.104;2022-11-21T07:36:01;4.55;51.28
70695;DHT22;58269;52.246;21.104;2022-11-21T07:38:03;4.56;51.04
70695;DHT22;58269;52.246;21.104;2022-11-21T07:40:05;4.62;51.10
70695;DHT22;58269;52.246;21.104;2022-11-21T07:42:07;4.63;51.09
70695;DHT22;58269;52.246;21.104;2022-11-21T07:44:10;4.69;50.98
70695;DHT22;58269;52.246;21.104;2022-11-21T07:46:11;4.69;51.00
70695;DHT22;58269;52.246;21.104;2022-11-21T07:48:12;4.70;51.04
70695;DHT22;58269;52.246;21.104;2022-11-21T07:50:13;4.67;50.95
70695;DHT22;58269;52.246;21.104;2022-11-21T07:52:14;4.69;50.86
70695;DHT22;58269;52.246;21.104;2022-11-21T07:54:15;4.72;50.92
70695;DHT22;58269;52.246;21.104;2022-11-21T07:56:16;4.79;50.91
70695;DHT22;58269;52.246;21.104;2022-11-21T07:58:17;4.83;51.06
70695;DHT22;58269;52.246;21.104;2022-11-21T08:00:19;4.84;51.02
70695;DHT22;58269;52.246;21.104;2022-11-21T08:02:22;4.86;50.92
70695;DHT22;58269;52.246;21.104;2022-11-21T08:04:23;4.80;50.99
70695;DHT22;58269;52.246;21.104;2022-11-21T08:06:24;4.81;51.14
70695;DHT22;58269;52.246;21.104;2022-11-21T08:08:25;4.83;51.13
70695;DHT22;58269;52.246;21.104;2022-11-21T08:10:26;4.81;51.20
70695;DHT22;58269;52.246;21.104;2022-11-21T08:12:28;4.79;50.97
70695;DHT22;58269;52.246;21.104;2022-11-21T08:14:32;4.79;51.04
70695;DHT22;58269;52.246;21.104;2022-11-21T08:16:33;4.84;51.21
70695;DHT22;58269;52.246;21.104;2022-11-21T08:18:34;4.87;51.35
70695;DHT22;58269;52.246;21.104;2022-11-21T08:20:35;4.91;51.07
70695;DHT22;58269;52.246;21.104;2022-11-21T08:22:38;4.87;51.11
70695;DHT22;58269;52.246;21.104;2022-11-21T08:24:40;4.83;50.97
70695;DHT22;58269;52.246;21.104;2022-11-21T08:26:45;4.90;51.16
70695;DHT22;58269;52.246;21.104;2022-11-21T08:28:46;4.97;51.21
70695;DHT22;58269;52.246;21.104;2022-11-21T08:30:47;5.01;51.15
70695;DHT22;58269;52.246;21.104;2022-11-21T08:32:49;5.04;50.96
70695;DHT22;58269;52.246;21.104;2022-11-21T08:34:50;5.05;51.06
70695;DHT22;58269;52.246;21.104;2022-11-21T08:36:51;5.17;51.22
70695;DHT22;58269;52.246;21.104;2022-11-21T08:38:53;5.24;50.78
70695;DHT22;58269;52.246;21.104;2022-11-21T08:40:54;5.01;50.26
70695;DHT22;58269;52.246;21.104;2022-11-21T08:43:13;5.14;51.04
70695;DHT22;58269;52.246;21.104;2022-11-21T08:45:14;5.24;50.91
70695;DHT22;58269;52.246;21.104;2022-11-21T08:47:16;5.21;50.22
70695;DHT22;58269;52.246;21.104;2022-11-21T08:49:17;5.18;50.44
70695;DHT22;58269;52.246;21.104;2022-11-21T08:51:19;5.25;49.38
70695;DHT22;58269;52.246;21.104;2022-11-21T08:53:20;5.15;50.30
70695;DHT22;58269;52.246;21.104;2022-11-21T08:55:21;5.32;50.18
70695;DHT22;58269;52.246;21.104;2022-11-21T08:57:22;5.05;49.16
70695;DHT22;58269;52.246;21.104;2022-11-21T08:59:24;5.27;51.37
70695;DHT22;58269;52.246;21.104;2022-11-21T09:01:25;5.19;50.58
70695;DHT22;58269;52.246;21.104;2022-11-21T09:03:27;5.08;50.66
70695;DHT22;58269;52.246;21.104;2022-11-21T09:05:28;5.34;51.67
70695;DHT22;58269;52.246;21.104;2022-11-21T09:07:29;5.14;50.86
70695;DHT22;58269;52.246;21.104;2022-11-21T09:09:30;5.17;51.56
70695;DHT22;58269;52.246;21.104;2022-11-21T09:11:34;5.31;50.27
70695;DHT22;58269;52.246;21.104;2022-11-21T09:13:36;5.03;49.71
70695;DHT22;58269;52.246;21.104;2022-11-21T09:15:37;5.28;51.58
70695;DHT22;58269;52.246;21.104;2022-11-21T09:18:00;5.15;49.13
70695;DHT22;58269;52.246;21.104;2022-11-21T09:20:07;5.22;51.82
70695;DHT22;58269;52.246;21.104;2022-11-21T09:22:09;5.35;50.40
70695;DHT22;58269;52.246;21.104;2022-11-21T09:24:10;5.03;49.42
70695;DHT22;58269;52.246;21.104;2022-11-21T09:26:11;5.24;51.96
70695;DHT22;58269;52.246;21.104;2022-11-21T09:28:12;5.29;50.83
70695;DHT22;58269;52.246;21.104;2022-11-21T09:30:14;5.08;51.64
70695;DHT22;58269;52.246;21.104;2022-11-21T09:32:16;5.59;53.24
70695;DHT22;58269;52.246;21.104;2022-11-21T09:34:17;5.35;48.98
70695;DHT22;58269;52.246;21.104;2022-11-21T09:36:19;5.14;52.21
70695;DHT22;58269;52.246;21.104;2022-11-21T09:38:20;5.66;53.03
70695;DHT22;58269;52.246;21.104;2022-11-21T09:40:21;5.35;51.67
70695;DHT22;58269;52.246;21.104;2022-11-21T09:47:10;5.12;49.39
70695;DHT22;58269;52.246;21.104;2022-11-21T09:49:08;5.59;53.90
70695;DHT22;58269;52.246;21.104;2022-11-21T09:51:11;5.55;50.54
70695;DHT22;58269;52.246;21.104;2022-11-21T09:53:25;5.11;52.57
70695;DHT22;58269;52.246;21.104;2022-11-21T09:57:32;5.41;51.69
70695;DHT22;58269;52.246;21.104;2022-11-21T09:59:36;5.12;50.88
70695;DHT22;58269;52.246;21.104;2022-11-21T10:01:38;5.43;52.99
70695;DHT22;58269;52.246;21.104;2022-11-21T10:03:49;5.28;51.51
70695;DHT22;58269;52.246;21.104;2022-11-21T10:06:00;5.15;52.43
70695;DHT22;58269;52.246;21.104;2022-11-21T10:10:49;5.10;50.80
70695;DHT22;58269;52.246;21.104;2022-11-21T10:13:10;5.38;53.62
70695;DHT22;58269;52.246;21.104;2022-11-21T10:20:02;5.38;51.34
70695;DHT22;58269;52.246;21.104;2022-11-21T10:24:39;5.46;53.39
70695;DHT22;58269;52.246;21.104;2022-11-21T10:31:10;5.34;52.27
70695;DHT22;58269;52.246;21.104;2022-11-21T10:33:32;5.31;53.79
70695;DHT22;58269;52.246;21.104;2022-11-21T10:35:38;5.63;54.62
70695;DHT22;58269;52.246;21.104;2022-11-21T10:37:44;5.32;51.65
70695;DHT22;58269;52.246;21.104;2022-11-21T10:39:50;5.24;53.03
70695;DHT22;58269;52.246;21.104;2022-11-21T10:41:57;5.69;53.40
70695;DHT22;58269;52.246;21.104;2022-11-21T10:44:02;5.48;50.62
70695;DHT22;58269;52.246;21.104;2022-11-21T10:46:22;5.18;50.58
70695;DHT22;58269;52.246;21.104;2022-11-21T10:48:23;5.61;53.67
70695;DHT22;58269;52.246;21.104;2022-11-21T10:55:08;5.58;53.13
70695;DHT22;58269;52.246;21.104;2022-11-21T10:57:18;5.49;50.68
70695;DHT22;58269;52.246;21.104;2022-11-21T10:59:26;5.24;50.21
70695;DHT22;58269;52.246;21.104;2022-11-21T11:01:34;5.56;53.24
70695;DHT22;58269;52.246;21.104;2022-11-21T11:03:35;5.58;50.54
70695;DHT22;58269;52.246;21.104;2022-11-21T11:05:37;5.35;52.15
70695;DHT22;58269;52.246;21.104;2022-11-21T11:07:38;5.27;52.80
70695;DHT22;58269;52.246;21.104;2022-11-21T11:09:39;5.62;54.19
70695;DHT22;58269;52.246;21.104;2022-11-21T11:11:40;5.56;52.88
70695;DHT22;58269;52.246;21.104;2022-11-21T11:14:04;5.41;52.33
70695;DHT22;58269;52.246;21.104;2022-11-21T11:16:05;5.32;50.26
70695;DHT22;58269;52.246;21.104;2022-11-21T11:18:11;5.34;49.93
70695;DHT22;58269;52.246;21.104;2022-11-21T11:20:41;5.35;50.31
70695;DHT22;58269;52.246;21.104;2022-11-21T11:22:43;5.31;50.91
70695;DHT22;58269;52.246;21.104;2022-11-21T11:24:44;5.25;50.71
70695;DHT22;58269;52.246;21.104;2022-11-21T11:26:50;5.45;53.16
70695;DHT22;58269;52.246;21.104;2022-11-21T11:29:50;5.41;50.83
70695;DHT22;58269;52.246;21.104;2022-11-21T11:30:57;5.24;52.21
70695;DHT22;58269;52.246;21.104;2022-11-21T11:32:58;5.53;54.36
70695;DHT22;58269;52.246;21.104;2022-11-21T11:35:03;5.56;52.05
70695;DHT22;58269;52.246;21.104;2022-11-21T11:39:38;5.27;52.05
70695;DHT22;58269;52.246;21.104;2022-11-21T11:44:09;5.39;51.53
70695;DHT22;58269;52.246;21.104;2022-11-21T11:49:00;5.38;53.30
70695;DHT22;58269;52.246;21.104;2022-11-21T11:51:06;5.29;53.69
70695;DHT22;58269;52.246;21.104;2022-11-21T11:53:20;5.32;56.98
70695;DHT22;58269;52.246;21.104;2022-11-21T11:55:32;5.63;55.24
70695;DHT22;58269;52.246;21.104;2022-11-21T11:57:33;5.43;53.42
70695;DHT22;58269;52.246;21.104;2022-11-21T11:59:39;5.25;51.85
70695;DHT22;58269;52.246;21.104;2022-11-21T12:04:09;5.55;54.71
70695;DHT22;58269;52.246;21.104;2022-11-21T12:06:17;5.32;54.13
70695;DHT22;58269;52.246;21.104;2022-11-21T12:08:41;5.35;56.88
70695;DHT22;58269;52.246;21.104;2022-11-21T12:10:50;5.66;55.14
70695;DHT22;58269;52.246;21.104;2022-11-21T12:13:10;5.43;53.69
70695;DHT22;58269;52.246;21.104;2022-11-21T12:15:39;5.19;52.25
70695;DHT22;58269;52.246;21.104;2022-11-21T12:20:23;5.53;55.03
70695;DHT22;58269;52.246;21.104;2022-11-21T12:22:21;5.32;53.97
70695;DHT22;58269;52.246;21.104;2022-11-21T12:24:22;5.42;56.86
70695;DHT22;58269;52.246;21.104;2022-11-21T12:26:47;5.63;54.53
70695;DHT22;58269;52.246;21.104;2022-11-21T12:36:27;5.42;53.13
70695;DHT22;58269;52.246;21.104;2022-11-21T12:43:45;5.45;54.48
70695;DHT22;58269;52.246;21.104;2022-11-21T12:51:37;5.52;54.53
70695;DHT22;58269;52.246;21.104;2022-11-21T12:53:10;5.22;53.68
70695;DHT22;58269;52.246;21.104;2022-11-21T13:04:45;5.62;55.37
70695;DHT22;58269;52.246;21.104;2022-11-21T13:06:48;5.43;54.19
70695;DHT22;58269;52.246;21.104;2022-11-21T13:08:50;5.24;52.86
70695;DHT22;58269;52.246;21.104;2022-11-21T13:10:56;5.52;57.59
70695;DHT22;58269;52.246;21.104;2022-11-21T13:13:18;5.59;54.87
70695;DHT22;58269;52.246;21.104;2022-11-21T13:15:33;5.38;53.78
70695;DHT22;58269;52.246;21.104;2022-11-21T13:17:57;5.29;56.36
70695;DHT22;58269;52.246;21.104;2022-11-21T13:26:53;5.63;56.88
70695;DHT22;58269;52.246;21.104;2022-11-21T13:29:12;5.50;55.48
70695;DHT22;58269;52.246;21.104;2022-11-21T13:31:33;5.22;54.60
70695;DHT22;58269;52.246;21.104;2022-11-21T13:38:06;5.34;56.18
70695;DHT22;58269;52.246;21.104;2022-11-21T13:42:31;5.56;57.36
70695;DHT22;58269;52.246;21.104;2022-11-21T13:44:53;5.32;55.51
70695;DHT22;58269;52.246;21.104;2022-11-21T13:51:54;5.36;56.30
70695;DHT22;58269;52.246;21.104;2022-11-21T13:54:22;5.25;57.67
70695;DHT22;58269;52.246;21.104;2022-11-21T13:58:43;5.42;56.78
70695;DHT22;58269;52.246;21.104;2022-11-21T14:01:00;5.24;56.56
70695;DHT22;58269;52.246;21.104;2022-11-21T14:03:10;5.66;58.66
70695;DHT22;58269;52.246;21.104;2022-11-21T14:07:25;5.19;56.13
70695;DHT22;58269;52.246;21.104;2022-11-21T14:09:33;5.62;59.57
70695;DHT22;58269;52.246;21.104;2022-11-21T14:11:36;5.56;57.55
70695;DHT22;58269;52.246;21.104;2022-11-21T14:13:38;5.28;56.37
70695;DHT22;58269;52.246;21.104;2022-11-21T14:15:49;5.46;60.23
70695;DHT22;58269;52.246;21.104;2022-11-21T14:17:55;5.66;58.01
70695;DHT22;58269;52.246;21.104;2022-11-21T14:19:59;5.39;55.88
70695;DHT22;58269;52.246;21.104;2022-11-21T14:22:01;5.27;57.42
70695;DHT22;58269;52.246;21.104;2022-11-21T14:24:04;5.65;59.02
70695;DHT22;58269;52.246;21.104;2022-11-21T14:26:13;5.46;56.25
70695;DHT22;58269;52.246;21.104;2022-11-21T14:28:25;5.19;56.00
70695;DHT22;58269;52.246;21.104;2022-11-21T14:30:39;5.63;58.93
70695;DHT22;58269;52.246;21.104;2022-11-21T14:32:40;5.41;56.15
70695;DHT22;58269;52.246;21.104;2022-11-21T14:34:41;5.19;56.55
70695;DHT22;58269;52.246;21.104;2022-11-21T14:36:43;5.70;59.71